createdAt,value
2022-11-23T00:01:29.244Z,99066.06
2022-11-23T00:04:14.506Z,99079.75
2022-11-23T00:06:59.867Z,99076.34
2022-11-23T00:09:44.896Z,99081.47
2022-11-23T00:12:29.819Z,99079.72
2022-11-23T00:15:15.604Z,99081.47
2022-11-23T00:18:00.393Z,99084.88
2022-11-23T00:20:45.415Z,99084.00
2022-11-23T00:23:30.322Z,99088.28
2022-11-23T00:26:17.095Z,99090.00
2022-11-23T00:29:02.247Z,99092.56
2022-11-23T00:31:47.700Z,99090.91
2022-11-23T00:34:32.765Z,99093.47
2022-11-23T00:37:17.525Z,99089.19
2022-11-23T00:40:02.537Z,99088.31
2022-11-23T00:42:47.632Z,99094.31
2022-11-23T00:45:32.512Z,99094.31
2022-11-23T00:48:17.570Z,99089.19
2022-11-23T00:51:04.889Z,99095.22
2022-11-23T00:53:51.585Z,99102.13
2022-11-23T00:56:36.813Z,99096.13
2022-11-23T00:59:21.843Z,99097.88
2022-11-23T01:02:07.302Z,99097.03
2022-11-23T01:04:52.111Z,99094.53
2022-11-23T01:07:37.124Z,99098.03
2022-11-23T01:10:22.368Z,99097.16
2022-11-23T01:13:07.286Z,99096.31
2022-11-23T01:15:52.161Z,99091.19
2022-11-23T01:18:37.136Z,99094.66
2022-11-23T01:21:22.759Z,99093.81
2022-11-23T01:24:11.440Z,99089.53
2022-11-23T01:26:56.707Z,99084.44
2022-11-23T01:29:41.781Z,99088.75
2022-11-23T01:32:26.879Z,99091.34
2022-11-23T01:35:11.784Z,99085.34
2022-11-23T01:37:56.674Z,99080.22
2022-11-23T01:40:42.519Z,99070.81
2022-11-23T01:43:27.343Z,99077.69
2022-11-23T01:46:12.591Z,99071.72
2022-11-23T01:48:57.525Z,99076.00
2022-11-23T01:51:46.344Z,99067.44
2022-11-23T01:54:38.341Z,99061.47
2022-11-23T01:57:34.379Z,99063.19
2022-11-23T02:00:19.212Z,99065.78
2022-11-23T02:03:05.359Z,99061.50
2022-11-23T02:05:55.931Z,99065.78
2022-11-23T02:08:41.737Z,99058.06
2022-11-23T02:11:27.175Z,99061.53
2022-11-23T02:14:12.634Z,99073.53
2022-11-23T02:16:58.978Z,99065.81
2022-11-23T02:19:59.353Z,99065.81
2022-11-23T02:22:55.583Z,99057.25
2022-11-23T02:25:43.647Z,99064.13
2022-11-23T02:28:35.167Z,99053.81
2022-11-23T02:31:20.335Z,99058.97
2022-11-23T02:34:05.790Z,99077.00
2022-11-23T02:36:54.815Z,99072.72
2022-11-23T02:39:48.096Z,99067.53
2022-11-23T02:42:33.380Z,99077.00
2022-11-23T02:45:24.635Z,99076.13
2022-11-23T02:48:09.552Z,99071.84
2022-11-23T02:50:54.450Z,99076.13
2022-11-23T02:53:39.838Z,99084.72
2022-11-23T02:56:24.874Z,99081.28
2022-11-23T02:59:09.856Z,99088.97
2022-11-23T03:01:54.724Z,99095.88
2022-11-23T03:04:40.078Z,99094.16
2022-11-23T03:07:26.132Z,99097.59
2022-11-23T03:10:11.547Z,99098.44
2022-11-23T03:12:57.312Z,99094.16
2022-11-23T03:15:42.886Z,99097.59
2022-11-23T03:18:28.005Z,99100.16
2022-11-23T03:21:14.744Z,99108.75
2022-11-23T03:24:00.151Z,99126.72
2022-11-23T03:26:45.587Z,99124.13
2022-11-23T03:29:31.024Z,99136.16
2022-11-23T03:32:16.153Z,99131.00
2022-11-23T03:35:01.534Z,99138.72
2022-11-23T03:37:46.412Z,99140.41
2022-11-23T03:40:31.405Z,99148.13
2022-11-23T03:43:16.382Z,99145.50
2022-11-23T03:46:01.628Z,99142.91
2022-11-23T03:48:46.633Z,99144.59
2022-11-23T03:51:31.596Z,99152.34
2022-11-23T03:54:16.727Z,99144.63
2022-11-23T03:57:02.198Z,99150.59
2022-11-23T03:59:47.471Z,99148.84
2022-11-23T04:02:32.570Z,99159.09
2022-11-23T04:05:17.915Z,99156.53
2022-11-23T04:08:03.339Z,99157.41
2022-11-23T04:10:48.562Z,99157.38
2022-11-23T04:13:33.647Z,99152.22
2022-11-23T04:16:19.380Z,99154.81
2022-11-23T04:19:04.430Z,99155.66
2022-11-23T04:21:49.508Z,99156.50
2022-11-23T04:24:35.085Z,99161.66
2022-11-23T04:27:19.856Z,99152.22
2022-11-23T04:30:05.690Z,99152.19
2022-11-23T04:32:51.040Z,99151.31
2022-11-23T04:35:36.953Z,99151.31
2022-11-23T04:38:21.728Z,99158.16
2022-11-23T04:41:06.821Z,99152.16
2022-11-23T04:43:51.994Z,99150.41
2022-11-23T04:46:37.540Z,99148.69
2022-11-23T04:49:22.855Z,99149.56
2022-11-23T04:52:07.886Z,99154.72
2022-11-23T04:54:53.520Z,99154.75
2022-11-23T04:57:38.536Z,99159.03
2022-11-23T05:00:24.240Z,99161.59
2022-11-23T05:03:09.350Z,99158.13
2022-11-23T05:05:58.485Z,99165.91
2022-11-23T05:08:43.671Z,99159.91
2022-11-23T05:11:28.587Z,99159.91
2022-11-23T05:14:14.060Z,99165.09
2022-11-23T05:16:59.387Z,99165.09
2022-11-23T05:19:44.342Z,99164.28
2022-11-23T05:22:29.347Z,99167.72
2022-11-23T05:25:14.580Z,99147.13
2022-11-23T05:28:07.483Z,99157.47
2022-11-23T05:31:05.348Z,99157.44
2022-11-23T05:33:51.702Z,99160.03
2022-11-23T05:36:40.822Z,99169.44
2022-11-23T05:39:27.419Z,99178.88
2022-11-23T05:42:12.337Z,99183.13
2022-11-23T05:44:57.269Z,99188.28
2022-11-23T05:47:42.189Z,99193.41
2022-11-23T05:50:28.329Z,99197.69
2022-11-23T05:53:13.598Z,99189.97
2022-11-23T05:56:00.156Z,99196.84
2022-11-23T05:58:45.132Z,99189.13
2022-11-23T06:01:30.015Z,99189.09
2022-11-23T06:04:15.161Z,99195.09
2022-11-23T06:07:00.308Z,99203.59
2022-11-23T06:09:45.831Z,99206.16
2022-11-23T06:12:31.851Z,99196.75
2022-11-23T06:15:16.904Z,99204.44
2022-11-23T06:18:03.111Z,99207.84
2022-11-23T06:20:48.000Z,99199.28
2022-11-23T06:23:32.889Z,99199.28
2022-11-23T06:26:17.820Z,99207.78
2022-11-23T06:29:02.847Z,99209.44
2022-11-23T06:31:48.412Z,99206.00
2022-11-23T06:34:33.274Z,99209.38
2022-11-23T06:37:18.160Z,99211.91
2022-11-23T06:40:03.250Z,99213.59
2022-11-23T06:42:49.745Z,99211.84
2022-11-23T06:45:35.139Z,99222.94
2022-11-23T06:48:21.998Z,99224.63
2022-11-23T06:51:07.245Z,99228.00
2022-11-23T06:53:52.105Z,99232.28
2022-11-23T06:56:36.802Z,99228.84
2022-11-23T06:59:22.140Z,99237.38
2022-11-23T07:02:07.015Z,99234.81
2022-11-23T07:04:51.974Z,99244.25
2022-11-23T07:07:37.004Z,99235.66
2022-11-23T07:10:23.698Z,99241.72
2022-11-23T07:13:10.373Z,99242.53
2022-11-23T07:15:57.979Z,99233.97
2022-11-23T07:18:43.268Z,99246.81
2022-11-23T07:21:28.175Z,99232.28
2022-11-23T07:24:13.338Z,99253.75
2022-11-23T07:26:58.269Z,99240.88
2022-11-23T07:29:43.547Z,99244.34
2022-11-23T07:32:28.545Z,99240.91
2022-11-23T07:35:13.692Z,99253.81
2022-11-23T07:38:00.061Z,99256.44
2022-11-23T07:40:49.347Z,99257.34
2022-11-23T07:43:34.356Z,99252.28
2022-11-23T07:46:19.432Z,99252.34
2022-11-23T07:49:04.259Z,99244.63
2022-11-23T07:51:49.117Z,99250.66
2022-11-23T07:54:34.077Z,99243.84
2022-11-23T08:23:43.666Z,99227.06
2022-11-23T08:26:30.500Z,99226.25
2022-11-23T08:29:16.134Z,99230.56
2022-11-23T08:32:01.335Z,99222.84
2022-11-23T08:34:46.877Z,99211.72
2022-11-23T08:37:32.344Z,99221.97
2022-11-23T08:40:24.804Z,99234.00
2022-11-23T08:43:11.307Z,99237.44
2022-11-23T08:46:03.864Z,99240.88
2022-11-23T08:48:50.163Z,99243.50
2022-11-23T08:51:35.092Z,99239.22
2022-11-23T08:54:20.550Z,99237.50
2022-11-23T08:57:07.158Z,99236.66
2022-11-23T08:59:52.513Z,99232.41
2022-11-23T09:02:37.906Z,99227.22
2022-11-23T09:05:23.076Z,99232.44
2022-11-23T09:08:08.570Z,99243.59
2022-11-23T09:10:54.062Z,99229.00
2022-11-23T09:13:40.838Z,99230.72
2022-11-23T09:16:32.422Z,99230.75
2022-11-23T09:19:19.283Z,99224.72
2022-11-23T09:22:04.536Z,99221.31
2022-11-23T09:24:49.764Z,99217.91
2022-11-23T09:27:35.005Z,99213.66
2022-11-23T09:30:20.309Z,99215.41
2022-11-23T09:33:05.788Z,99216.28
2022-11-23T09:36:01.945Z,99220.59
2022-11-23T09:39:02.522Z,99215.44
2022-11-23T09:41:53.913Z,99206.84
2022-11-23T09:44:52.649Z,99204.28
2022-11-23T09:47:52.412Z,99211.16
2022-11-23T09:51:06.199Z,99197.41
2022-11-23T09:53:56.296Z,99197.41
2022-11-23T09:56:42.758Z,99182.81
2022-11-23T09:59:36.264Z,99182.78
2022-11-23T10:02:24.316Z,99173.31
2022-11-23T10:05:23.208Z,99157.81
2022-11-23T10:08:32.023Z,99148.34
2022-11-23T10:11:55.811Z,99140.56
2022-11-23T10:14:44.062Z,99129.38
2022-11-23T10:18:23.432Z,99104.44
2022-11-23T10:21:14.344Z,99090.63
2022-11-23T10:24:19.267Z,99072.50
2022-11-23T10:27:13.786Z,99056.06
2022-11-23T10:30:00.104Z,99057.75
2022-11-23T10:33:19.439Z,99033.69
2022-11-23T10:36:04.994Z,99048.31
2022-11-23T10:39:01.925Z,99025.09
2022-11-23T10:41:47.404Z,99020.75
2022-11-23T10:44:35.800Z,99029.22
2022-11-23T10:47:48.540Z,99010.28
2022-11-23T10:50:36.656Z,99005.03
2022-11-23T10:53:23.691Z,99017.00
2022-11-23T10:56:13.350Z,99015.28
2022-11-23T10:58:58.765Z,98982.56
2022-11-23T11:01:59.649Z,98991.13
2022-11-23T11:04:46.552Z,98971.31
2022-11-23T11:07:31.889Z,98961.94
2022-11-23T11:10:35.136Z,98973.09
2022-11-23T11:13:25.776Z,98956.66
2022-11-23T11:16:36.597Z,98942.84
2022-11-23T11:19:29.085Z,98945.47
2022-11-23T11:22:36.335Z,98954.91
2022-11-23T11:25:27.944Z,98974.63
2022-11-23T11:28:35.040Z,98948.06
2022-11-23T11:31:34.115Z,98991.13
2022-11-23T11:34:31.636Z,98964.31
2022-11-23T11:41:10.888Z,98956.34
2022-11-23T11:44:02.618Z,98946.09
2022-11-23T11:46:57.239Z,98967.69
2022-11-23T11:49:48.280Z,98955.81
2022-11-23T11:52:38.963Z,98999.81
2022-11-23T11:59:30.734Z,99012.00
2022-11-23T12:02:24.116Z,98995.56
2022-11-23T12:05:30.515Z,99015.28
2022-11-23T12:08:33.018Z,98978.31
2022-11-23T12:11:18.609Z,98988.00
2022-11-23T12:14:05.671Z,99002.72
2022-11-23T12:17:17.381Z,99022.59
2022-11-23T12:31:24.653Z,98956.72
2022-11-23T12:34:45.848Z,98941.78
2022-11-23T12:37:42.722Z,98917.81
2022-11-23T12:40:57.864Z,98938.59
2022-11-23T12:43:55.113Z,98919.91
2022-11-23T12:47:13.428Z,98951.94
2022-11-23T12:50:06.006Z,98976.91
2022-11-23T12:53:09.524Z,98951.72
2022-11-23T12:56:32.517Z,98931.66
2022-11-23T12:59:19.667Z,98899.72
2022-11-23T13:02:15.349Z,98874.69
2022-11-23T13:05:17.780Z,98858.28
2022-11-23T13:08:21.915Z,98842.81
2022-11-23T13:11:28.904Z,98846.06
2022-11-23T13:14:20.084Z,98837.81
2022-11-23T13:17:29.225Z,98794.78
2022-11-23T13:20:28.935Z,98809.84
2022-11-23T13:23:14.190Z,98774.56
2022-11-23T13:26:20.126Z,98801.13
2022-11-23T13:29:43.442Z,98806.00
2022-11-23T13:32:40.827Z,98840.78
2022-11-23T13:35:29.219Z,98805.75
2022-11-23T13:38:14.049Z,98804.97
2022-11-23T13:40:58.984Z,98828.84
2022-11-23T13:43:44.394Z,98807.19
2022-11-23T13:46:29.928Z,98829.84
2022-11-23T13:49:49.201Z,98861.41
2022-11-23T13:52:34.519Z,98824.19
2022-11-23T13:55:36.659Z,98817.44
2022-11-23T13:58:22.056Z,98824.53
2022-11-23T14:01:08.225Z,98842.31
2022-11-23T14:03:55.344Z,98852.03
2022-11-23T14:06:48.788Z,98820.88
2022-11-23T14:09:49.349Z,98847.09
2022-11-23T14:12:44.445Z,98811.69
2022-11-23T14:15:34.206Z,98819.59
2022-11-23T14:19:03.411Z,98810.19
2022-11-23T14:22:21.176Z,98799.56
2022-11-23T14:25:19.234Z,98818.16
2022-11-23T14:28:28.674Z,98830.22
2022-11-23T14:31:16.710Z,98830.41
2022-11-23T14:34:15.314Z,98846.00
2022-11-23T14:37:18.497Z,98851.63
2022-11-23T14:40:24.886Z,98850.69
2022-11-23T14:43:15.091Z,98840.03
2022-11-23T14:46:02.381Z,98834.28
2022-11-23T14:48:48.672Z,98836.84
2022-11-23T14:51:35.555Z,98849.25
2022-11-23T14:54:20.934Z,98872.72
2022-11-23T14:57:06.970Z,98895.28
2022-11-23T15:00:07.042Z,98921.22
2022-11-23T15:03:04.560Z,98959.88
2022-11-23T15:06:10.396Z,98946.19
2022-11-23T15:09:16.285Z,98970.38
2022-11-23T15:12:27.059Z,98979.03
2022-11-23T15:15:26.839Z,98972.22
2022-11-23T15:18:11.933Z,98978.31
2022-11-23T15:21:01.595Z,98986.91
2022-11-23T15:23:49.534Z,98988.59
2022-11-23T15:26:48.030Z,98992.03
2022-11-23T15:29:38.677Z,98998.94
2022-11-23T15:32:34.963Z,98997.22
2022-11-23T15:35:22.809Z,99015.22
2022-11-23T15:38:16.628Z,99027.25
2022-11-23T15:41:04.328Z,99036.69
2022-11-23T15:43:57.747Z,99043.53
2022-11-23T15:46:43.024Z,99059.84
2022-11-23T15:49:28.219Z,99063.25
2022-11-23T15:52:17.734Z,99068.38
2022-11-23T15:55:12.585Z,99065.81
2022-11-23T15:57:58.603Z,99073.50
2022-11-23T16:01:06.822Z,99076.88
2022-11-23T16:03:58.620Z,99074.31
2022-11-23T16:06:48.171Z,99065.75
2022-11-23T16:09:53.941Z,99060.59
2022-11-23T16:12:49.549Z,99069.19
2022-11-23T16:15:34.671Z,99063.16
2022-11-23T16:18:21.610Z,99069.16
2022-11-23T16:21:07.144Z,99082.00
2022-11-23T16:23:55.617Z,99079.38
2022-11-23T16:26:40.481Z,99084.53
2022-11-23T16:29:35.789Z,99090.53
2022-11-23T16:32:27.934Z,99106.81
2022-11-23T16:35:19.715Z,99116.25
2022-11-23T16:38:06.135Z,99130.84
2022-11-23T16:40:51.680Z,99126.47
2022-11-23T16:43:36.744Z,99134.16
2022-11-23T16:46:23.343Z,99135.88
2022-11-23T16:49:15.931Z,99142.69
2022-11-23T16:52:01.804Z,99151.19
2022-11-23T16:54:47.318Z,99154.63
2022-11-23T16:57:34.755Z,99159.75
2022-11-23T17:00:22.463Z,99169.22
2022-11-23T17:03:14.949Z,99164.09
2022-11-23T17:06:00.179Z,99173.50
2022-11-23T17:08:47.027Z,99177.72
2022-11-23T17:11:32.511Z,99185.41
2022-11-23T17:14:19.699Z,99187.97
2022-11-23T17:17:10.718Z,99192.28
2022-11-23T17:20:01.053Z,99199.13
2022-11-23T17:22:49.121Z,99199.13
2022-11-23T17:25:35.295Z,99205.06
2022-11-23T17:28:20.647Z,99219.56
2022-11-23T17:31:05.981Z,99217.00
2022-11-23T17:33:51.465Z,99218.75
2022-11-23T17:36:36.975Z,99234.19
2022-11-23T17:39:25.043Z,99232.44
2022-11-23T17:42:14.052Z,99244.50
2022-11-23T17:44:59.362Z,99248.03
2022-11-23T17:47:45.134Z,99254.03
2022-11-23T17:50:30.510Z,99260.03
2022-11-23T17:53:15.787Z,99270.34
2022-11-23T17:56:00.712Z,99278.91
2022-11-23T17:58:46.691Z,99305.41
2022-11-23T18:01:32.319Z,99319.88
2022-11-23T18:04:17.273Z,99339.59
2022-11-23T18:07:03.315Z,99352.34
2022-11-23T18:09:51.477Z,99362.69
2022-11-23T18:12:38.407Z,99366.94
2022-11-23T18:15:23.594Z,99366.13
2022-11-23T18:18:08.923Z,99360.97
2022-11-23T18:20:54.044Z,99355.78
2022-11-23T18:23:39.123Z,99366.03
2022-11-23T18:26:25.577Z,99375.50
2022-11-23T18:29:16.688Z,99375.53
2022-11-23T18:32:03.272Z,99363.56
2022-11-23T18:34:52.426Z,99371.19
2022-11-23T18:37:37.528Z,99369.47
2022-11-23T18:40:23.116Z,99374.53
2022-11-23T18:43:08.089Z,99381.47
2022-11-23T18:45:53.328Z,99378.00
2022-11-23T18:48:38.857Z,99386.56
2022-11-23T18:51:24.460Z,99398.53
2022-11-23T18:54:09.776Z,99396.84
2022-11-23T18:56:54.653Z,99407.22
2022-11-23T18:59:57.356Z,99410.66
2022-11-23T19:02:43.983Z,99406.28
2022-11-23T19:05:32.773Z,99416.47
2022-11-23T19:08:17.911Z,99406.84
2022-11-23T19:11:12.257Z,99421.53
2022-11-23T19:14:01.585Z,99424.03
2022-11-23T19:16:46.856Z,99430.69
2022-11-23T19:19:32.425Z,99435.81
2022-11-23T19:22:17.542Z,99445.13
2022-11-23T19:25:02.490Z,99450.97
2022-11-23T19:27:47.681Z,99465.50
2022-11-23T19:30:32.545Z,99461.28
2022-11-23T19:33:17.640Z,99476.88
2022-11-23T19:36:11.009Z,99479.28
2022-11-23T19:38:57.546Z,99482.78
2022-11-23T19:41:42.341Z,99486.38
2022-11-23T19:44:27.791Z,99480.22
2022-11-23T19:47:16.543Z,99477.38
2022-11-23T19:50:02.779Z,99481.63
2022-11-23T19:53:11.227Z,99485.94
2022-11-23T19:55:53.064Z,99493.72
2022-11-23T19:58:38.427Z,99501.34
2022-11-23T20:01:25.890Z,99504.69
2022-11-23T20:04:11.184Z,99504.78
2022-11-23T20:06:56.325Z,99509.91
2022-11-23T20:09:41.830Z,99506.41
2022-11-23T20:12:27.147Z,99508.97
2022-11-23T20:15:12.852Z,99514.97
2022-11-23T20:17:57.970Z,99516.72
2022-11-23T20:20:44.515Z,99516.72
2022-11-23T20:23:29.810Z,99509.91
2022-11-23T20:26:17.111Z,99513.38
2022-11-23T20:29:03.180Z,99511.66
2022-11-23T20:31:48.335Z,99521.19
2022-11-23T20:34:33.290Z,99519.47
2022-11-23T20:37:18.870Z,99520.31
2022-11-23T20:40:04.474Z,99529.84
2022-11-23T20:42:49.706Z,99532.44
2022-11-23T20:45:34.477Z,99531.66
2022-11-23T20:48:19.276Z,99529.09
2022-11-23T20:51:10.278Z,99537.63
2022-11-23T20:53:56.277Z,99537.66
2022-11-23T20:56:41.929Z,99550.56
2022-11-23T20:59:27.149Z,99541.94
2022-11-23T21:02:12.202Z,99533.59
2022-11-23T21:04:57.713Z,99537.06
2022-11-23T21:07:51.223Z,99536.16
2022-11-23T21:10:36.769Z,99536.16
2022-11-23T21:13:21.597Z,99537.97
2022-11-23T21:16:07.560Z,99530.28
2022-11-23T21:18:52.965Z,99545.75
2022-11-23T21:21:38.385Z,99544.91
2022-11-23T21:24:23.647Z,99542.38
2022-11-23T21:27:12.248Z,99550.09
2022-11-23T21:29:57.334Z,99550.91
2022-11-23T21:32:42.125Z,99547.47
2022-11-23T21:35:27.231Z,99548.44
2022-11-23T21:38:12.203Z,99557.06
2022-11-23T21:40:57.924Z,99556.09
2022-11-23T21:43:43.663Z,99559.53
2022-11-23T21:46:29.418Z,99560.53
2022-11-23T21:49:14.511Z,99564.78
2022-11-23T21:51:59.535Z,99565.59
2022-11-23T21:54:48.753Z,99563.91
2022-11-23T21:57:33.926Z,99569.06
2022-11-23T22:00:18.926Z,99574.22
2022-11-23T22:03:03.917Z,99576.84
2022-11-23T22:05:56.177Z,99575.22
2022-11-23T22:08:45.327Z,99583.78
2022-11-23T22:11:33.242Z,99571.59
2022-11-23T22:14:18.077Z,99581.09
2022-11-23T22:17:03.296Z,99589.66
2022-11-23T22:19:48.688Z,99597.31
2022-11-23T22:22:35.174Z,99601.44
2022-11-23T22:25:20.044Z,99606.56
2022-11-23T22:28:04.999Z,99601.47
2022-11-23T22:30:59.372Z,99605.75
2022-11-23T22:33:45.121Z,99598.91
2022-11-23T22:36:30.053Z,99597.97
2022-11-23T22:39:17.258Z,99613.38
2022-11-23T22:42:02.068Z,99615.03
2022-11-23T22:44:48.259Z,99609.00
2022-11-23T22:47:33.569Z,99615.69
2022-11-23T22:50:20.996Z,99620.91
2022-11-23T22:53:05.851Z,99625.09
2022-11-23T22:55:51.893Z,99631.75
2022-11-23T22:58:40.255Z,99632.50
2022-11-23T23:01:30.492Z,99641.94
2022-11-23T23:04:15.677Z,99639.41
2022-11-23T23:07:00.956Z,99634.28
2022-11-23T23:09:46.318Z,99642.69
2022-11-23T23:12:31.515Z,99637.28
2022-11-23T23:15:16.483Z,99651.75
2022-11-23T23:18:01.722Z,99657.69
2022-11-23T23:20:46.855Z,99659.44
2022-11-23T23:23:33.663Z,99666.34
2022-11-23T23:26:21.574Z,99665.34
2022-11-23T23:29:06.697Z,99680.63
2022-11-23T23:31:51.634Z,99688.38
2022-11-23T23:34:36.706Z,99691.69
2022-11-23T23:37:21.562Z,99701.03
2022-11-23T23:40:06.896Z,99691.63
2022-11-23T23:42:51.706Z,99695.16
2022-11-23T23:45:36.713Z,99689.00
2022-11-23T23:48:22.026Z,99691.69
2022-11-23T23:51:18.104Z,99700.16
2022-11-23T23:54:03.571Z,99690.63
2022-11-23T23:56:48.734Z,99699.16
2022-11-23T23:59:33.696Z,99695.00
